Estación Meteorológica Peña el Pijo (Robertgarden) [ 12/17/17 01:24:16 CET ]

Fecha Hora Presion(HPa) Temp (°C) Humedad % Rocio (°C) Viento ( m/s) Direccion Lluvia 1Hora(mm) Lluvia 24H(mm) LLuvia Total(mm)
2017-May-12 01:01:51 999.800 9.8 68 4.2         1390.83
2017-May-12 02:01:52 1000.100 9.4 72 4.6         1390.83
2017-May-12 03:02:45 999.800 8.8 72 4.0         1390.83
2017-May-12 04:02:39 999.300 8.4 73 3.8         1390.83
2017-May-12 05:05:10 999.300 7.2 75 3.0         1390.83
2017-May-12 06:01:48 999.400 7.2 77 3.4         1390.83
2017-May-12 07:01:31 999.700 7.6 77 3.8         1390.83
2017-May-12 08:01:36 1000.500 8.3 78 4.7         1390.83
2017-May-12 09:01:52 1000.700 10.6 76 6.5         1390.83
2017-May-12 10:01:32 1001.300 12.9 65 6.4         1390.83
2017-May-12 11:01:46 1002.000 15.8 55 6.8 1.4 N     1390.83
2017-May-12 12:01:46 1002.500 16.4 51 6.2         1390.83
2017-May-12 13:01:41 1002.900 18.8 45 6.6         1390.83
2017-May-12 14:02:06 1003.100 16.9 50 6.4         1390.83
2017-May-12 15:01:47 1003.200 17.5 48 6.3 3.2 NW     1390.83
2017-May-12 16:01:39 1003.100 20.9 41 7.1 3.1 N     1390.83
2017-May-12 17:01:56 1003.400 19.4 42 6.1         1390.83
2017-May-12 18:01:47 1004.000 17.6 53 7.8         1390.83
2017-May-12 19:01:54 1004.400 15.8 54 6.5 3.2 NW     1390.83
2017-May-12 20:01:49 1005.000 14.9 58 6.7         1390.83
2017-May-12 21:01:46 1005.800 14.1 63 7.1         1390.83
2017-May-12 22:01:47 1006.200 13.3 66 7.1         1390.83
2017-May-12 23:02:02 1007.100 12.8 68 7.0         1390.83

Temperatura Máxima:20°    Temperatura Mínima:
Presión Máxima:1007.100 Hpa    Presión Mínima:999.300 Hpa


Volver